CheckWX is a tool to help pilots better visualize weather data.  It is not intended as a substitute for an official pre-flight weather briefing.

01:49:39 UTC

SCVM TAF
Viña del mar Airport
Viña Del Mar, Chile
TAF SCVM 140400Z 1406/1506 14005KT CAVOK TX21/1418Z TN10/1411Z BECMG 1416/1418 30010KT BECMG 1500/1502 VRB02KT

Jul-14@
06:00 UTC

Jul-14 @ 06:00 UTC

Jul-14@
16:00 UTC

Jul-14 @ 16:00 UTC

TAF SCVM 140400Z 1406/1506 14005KT CAVOK TX21/1418Z TN10/1411Z

Expired

Wind
  • 140° at 5 KTS
Cloud Levels
  • No significant clouds

Jul-14@
16:00 UTC

Jul-14 @ 16:00 UTC

Jul-15@
00:00 UTC

Jul-15 @ 00:00 UTC

BECMG 1416/1418 30010KT

Expired

Wind
  • 300° at 10 KTS
Cloud Levels
  • No significant clouds

Jul-15@
00:00 UTC

Jul-15 @ 00:00 UTC

Jul-15@
06:00 UTC

Jul-15 @ 06:00 UTC

BECMG 1500/1502 VRB02KT

Becoming

Becoming Conditions expected by Wed, Jul 15, 2020 @ 02:00 UTC

Wind
  • Variable at 2 KTS
Cloud Levels
  • No significant clouds